CheckWX is a tool to help pilots better visualize weather data.  It is not intended as a substitute for an official pre-flight weather briefing.

02:53:37 UTC

KFLP METAR
Marion County Regional Airport
Flippin, Arkansas, USA
Current

58 mins ago

KFLP 250156Z AUTO 31005KT 10SM OVC016 02/M01 A3007 RMK AO2 SLP188 T00171011 FZRANO
Observed
Jan-25 @ 01:56 UTC
Wind
  • 310° at 5 KTS
Visibility
10 SM
Flight Rules
MVFR
Cloud Levels
  • Overcast at 1,600' AGL
Temperature
C / 36°F
Dewpoint
-1°C / 30°F
Humidity
81%
Altimeter
30.07" Hg
Pressure
1018.32 hPa
Previous

2 hours ago

KFLP 250056Z AUTO 28006KT 10SM OVC016 A3007 RMK AO2 SLPNO FZRANO
Observed
Jan-25 @ 00:56 UTC
Wind
  • 280° at 6 KTS
Visibility
10 SM
Flight Rules
MVFR
Cloud Levels
  • Overcast at 1,600' AGL
Altimeter
30.07" Hg
Pressure
1018.32 hPa
Previous

3 hours ago

KFLP 250005Z AUTO 28006KT 10SM OVC016 02/M01 A3005 RMK AO2 FZRANO
Observed
Jan-25 @ 00:05 UTC
Wind
  • 280° at 6 KTS
Visibility
10 SM
Flight Rules
MVFR
Cloud Levels
  • Overcast at 1,600' AGL
Temperature
C / 36°F
Dewpoint
-1°C / 30°F
Humidity
81%
Altimeter
30.05" Hg
Pressure
1017.62 hPa